createdAt,value
2017-06-27T00:00:38.151Z,9.95
2017-06-27T00:01:38.243Z,9.94
2017-06-27T00:02:38.242Z,9.97
2017-06-27T00:03:38.361Z,9.98
2017-06-27T00:04:38.152Z,10.02
2017-06-27T00:05:38.246Z,10.04
2017-06-27T00:06:38.165Z,10.05
2017-06-27T00:07:38.246Z,10.02
2017-06-27T00:08:38.169Z,9.95
2017-06-27T00:09:38.243Z,9.93
2017-06-27T00:10:38.211Z,9.84
2017-06-27T00:11:38.162Z,9.79
2017-06-27T00:12:38.161Z,9.82
2017-06-27T00:13:38.251Z,9.76
2017-06-27T00:14:38.159Z,9.72
2017-06-27T00:15:38.170Z,9.68
2017-06-27T00:16:38.160Z,9.61
2017-06-27T00:17:38.160Z,9.60
2017-06-27T00:18:38.244Z,9.55
2017-06-27T00:19:38.252Z,9.49
2017-06-27T00:20:38.263Z,9.47
2017-06-27T00:21:38.254Z,9.46
2017-06-27T00:22:38.225Z,9.46
2017-06-27T00:23:38.247Z,9.49
2017-06-27T00:24:38.261Z,9.51
2017-06-27T00:25:38.257Z,9.57
2017-06-27T00:26:38.165Z,9.55
2017-06-27T00:27:38.257Z,9.50
2017-06-27T00:28:38.173Z,9.50
2017-06-27T00:29:38.216Z,9.47
2017-06-27T00:30:38.259Z,9.47
2017-06-27T00:31:38.266Z,9.46
2017-06-27T00:32:38.202Z,9.46
2017-06-27T00:33:38.179Z,9.42
2017-06-27T00:34:38.263Z,9.39
2017-06-27T00:35:38.199Z,9.38
2017-06-27T00:36:38.179Z,9.36
2017-06-27T00:37:38.264Z,9.34
2017-06-27T00:38:38.206Z,9.34
2017-06-27T00:39:38.265Z,9.32
2017-06-27T00:40:38.271Z,9.30
2017-06-27T00:41:38.267Z,9.30
2017-06-27T00:42:38.315Z,9.27
2017-06-27T00:43:38.176Z,9.25
2017-06-27T00:44:38.172Z,9.20
2017-06-27T00:45:38.225Z,9.18
2017-06-27T00:46:38.183Z,9.13
2017-06-27T00:47:38.180Z,9.11
2017-06-27T00:48:38.192Z,9.11
2017-06-27T00:49:38.272Z,9.12
2017-06-27T00:50:38.189Z,9.11
2017-06-27T00:51:38.278Z,9.12
2017-06-27T00:52:38.320Z,9.12
2017-06-27T00:53:38.272Z,9.15
2017-06-27T00:54:38.184Z,9.16
2017-06-27T00:55:38.231Z,9.18
2017-06-27T00:56:38.274Z,9.16
2017-06-27T00:57:38.183Z,9.16
2017-06-27T00:58:38.277Z,9.16
2017-06-27T00:59:38.314Z,9.15
2017-06-27T01:00:38.194Z,9.11
2017-06-27T01:01:38.190Z,9.08
2017-06-27T01:02:38.233Z,9.07
2017-06-27T01:03:38.222Z,9.05
2017-06-27T01:04:38.274Z,9.04
2017-06-27T01:05:38.277Z,9.02
2017-06-27T01:06:38.192Z,9.02
2017-06-27T01:07:38.192Z,9.02
2017-06-27T01:08:38.195Z,9.01
2017-06-27T01:09:38.197Z,9.00
2017-06-27T01:10:38.281Z,8.97
2017-06-27T01:11:38.240Z,8.94
2017-06-27T01:12:38.260Z,8.93
2017-06-27T01:13:38.283Z,8.93
2017-06-27T01:14:38.198Z,8.93
2017-06-27T01:15:38.199Z,8.91
2017-06-27T01:16:38.201Z,8.91
2017-06-27T01:17:38.201Z,8.94
2017-06-27T01:18:38.197Z,8.94
2017-06-27T01:19:38.202Z,8.96
2017-06-27T01:20:38.204Z,8.97
2017-06-27T01:21:38.289Z,8.98
2017-06-27T01:22:38.291Z,8.98
2017-06-27T01:23:38.200Z,8.97
2017-06-27T01:24:38.205Z,8.94
2017-06-27T01:25:38.289Z,8.93
2017-06-27T01:26:38.270Z,8.90
2017-06-27T01:27:38.270Z,8.89
2017-06-27T01:28:38.290Z,8.89
2017-06-27T01:29:38.205Z,8.87
2017-06-27T01:30:38.257Z,8.86
2017-06-27T01:31:38.274Z,8.86
2017-06-27T01:32:38.210Z,8.89
2017-06-27T01:33:38.292Z,8.87
2017-06-27T01:34:38.256Z,8.87
2017-06-27T01:35:38.201Z,8.86
2017-06-27T01:36:38.212Z,8.83
2017-06-27T01:37:38.257Z,8.83
2017-06-27T01:38:38.205Z,8.82
2017-06-27T01:39:38.257Z,8.82
2017-06-27T01:40:38.299Z,8.80
2017-06-27T01:41:38.294Z,8.78
2017-06-27T01:42:38.307Z,8.75
2017-06-27T01:43:38.215Z,8.74
2017-06-27T01:44:38.303Z,8.76
2017-06-27T01:45:38.301Z,8.76
2017-06-27T01:46:38.307Z,8.78
2017-06-27T01:47:38.260Z,8.78
2017-06-27T01:48:38.304Z,8.79
2017-06-27T01:49:38.264Z,8.79
2017-06-27T01:50:38.357Z,8.79
2017-06-27T01:51:38.211Z,8.79
2017-06-27T01:52:38.304Z,8.78
2017-06-27T01:53:38.304Z,8.78
2017-06-27T01:54:38.222Z,8.76
2017-06-27T01:55:38.307Z,8.75
2017-06-27T01:56:38.311Z,8.72
2017-06-27T01:57:38.266Z,8.72
2017-06-27T01:58:38.310Z,8.80
2017-06-27T01:59:38.284Z,8.85
2017-06-27T02:00:38.227Z,8.83
2017-06-27T02:01:38.311Z,8.86
2017-06-27T02:02:38.289Z,8.89
2017-06-27T02:03:38.254Z,8.89
2017-06-27T02:04:38.313Z,8.86
2017-06-27T02:05:38.253Z,8.87
2017-06-27T02:06:38.309Z,8.90
2017-06-27T02:07:38.314Z,8.91
2017-06-27T02:08:38.232Z,8.93
2017-06-27T02:09:38.318Z,8.96
2017-06-27T02:10:38.320Z,8.96
2017-06-27T02:11:38.308Z,8.93
2017-06-27T02:12:38.230Z,8.90
2017-06-27T02:13:38.235Z,8.89
2017-06-27T02:14:38.318Z,8.83
2017-06-27T02:15:38.316Z,8.83
2017-06-27T02:16:38.318Z,8.79
2017-06-27T02:17:38.366Z,8.76
2017-06-27T02:18:38.323Z,8.75
2017-06-27T02:19:38.325Z,8.75
2017-06-27T02:20:38.316Z,8.74
2017-06-27T02:21:38.321Z,8.75
2017-06-27T02:22:38.325Z,8.76
2017-06-27T02:23:38.323Z,8.78
2017-06-27T02:24:38.322Z,8.80
2017-06-27T02:25:38.300Z,8.78
2017-06-27T02:26:38.325Z,8.71
2017-06-27T02:27:38.328Z,8.67
2017-06-27T02:28:38.323Z,8.67
2017-06-27T02:29:38.318Z,8.67
2017-06-27T02:30:38.241Z,8.67
2017-06-27T02:31:38.331Z,8.71
2017-06-27T02:32:38.327Z,8.74
2017-06-27T02:33:38.330Z,8.79
2017-06-27T02:34:38.238Z,8.85
2017-06-27T02:35:38.289Z,8.87
2017-06-27T02:36:38.249Z,8.87
2017-06-27T02:37:38.330Z,8.86
2017-06-27T02:38:38.286Z,8.86
2017-06-27T02:39:38.330Z,8.83
2017-06-27T02:40:38.294Z,8.82
2017-06-27T02:41:38.274Z,8.83
2017-06-27T02:42:38.329Z,8.82
2017-06-27T02:43:38.334Z,8.80
2017-06-27T02:44:38.384Z,8.80
2017-06-27T02:45:38.337Z,8.79
2017-06-27T02:46:38.336Z,8.76
2017-06-27T02:47:38.296Z,8.76
2017-06-27T02:48:38.250Z,8.78
2017-06-27T02:49:38.314Z,8.79
2017-06-27T02:50:38.248Z,8.80
2017-06-27T02:51:38.251Z,8.80
2017-06-27T02:52:38.339Z,8.80
2017-06-27T02:53:38.257Z,8.79
2017-06-27T02:54:38.300Z,8.79
2017-06-27T02:55:38.339Z,8.79
2017-06-27T02:56:38.348Z,8.80
2017-06-27T02:57:38.346Z,8.82
2017-06-27T02:58:38.341Z,8.82
2017-06-27T02:59:38.252Z,8.83
2017-06-27T03:00:38.265Z,8.85
2017-06-27T03:01:38.346Z,8.85
2017-06-27T03:02:38.312Z,8.82
2017-06-27T03:03:38.319Z,8.80
2017-06-27T03:04:38.346Z,8.80
2017-06-27T03:05:38.272Z,8.80
2017-06-27T03:06:38.304Z,8.79
2017-06-27T03:07:38.257Z,8.79
2017-06-27T03:08:38.256Z,8.80
2017-06-27T03:09:38.311Z,8.79
2017-06-27T03:10:38.351Z,8.79
2017-06-27T03:11:38.350Z,8.82
2017-06-27T03:12:38.353Z,8.82
2017-06-27T03:13:38.259Z,8.80
2017-06-27T03:14:38.351Z,8.79
2017-06-27T03:15:38.466Z,8.79
2017-06-27T03:16:38.313Z,8.80
2017-06-27T03:17:38.356Z,8.79
2017-06-27T03:18:38.268Z,8.80
2017-06-27T03:19:38.354Z,8.82
2017-06-27T03:20:38.327Z,8.82
2017-06-27T03:21:38.271Z,8.80
2017-06-27T03:22:38.349Z,8.82
2017-06-27T03:23:38.346Z,8.80
2017-06-27T03:24:38.271Z,8.79
2017-06-27T03:25:38.269Z,8.80
2017-06-27T03:26:38.360Z,8.82
2017-06-27T03:27:38.265Z,8.83
2017-06-27T03:28:38.276Z,8.82
2017-06-27T03:29:38.270Z,8.85
2017-06-27T03:30:38.272Z,8.86
2017-06-27T03:31:38.361Z,8.89
2017-06-27T03:32:38.278Z,8.94
2017-06-27T03:33:38.273Z,8.93
2017-06-27T03:34:38.325Z,8.90
2017-06-27T03:35:38.268Z,8.89
2017-06-27T03:36:38.356Z,8.89
2017-06-27T03:37:38.275Z,8.89
2017-06-27T03:38:38.353Z,8.87
2017-06-27T03:39:38.339Z,8.89
2017-06-27T03:40:38.364Z,8.89
2017-06-27T03:41:38.369Z,8.89
2017-06-27T03:42:38.359Z,8.93
2017-06-27T03:43:38.369Z,8.91
2017-06-27T03:44:38.272Z,8.93
2017-06-27T03:45:38.370Z,8.91
2017-06-27T03:46:38.308Z,8.94
2017-06-27T03:47:38.422Z,8.96
2017-06-27T03:48:38.370Z,9.01
2017-06-27T03:49:38.338Z,9.07
2017-06-27T03:50:38.281Z,9.09
2017-06-27T03:51:38.360Z,9.11
2017-06-27T03:52:38.372Z,9.13
2017-06-27T03:53:38.375Z,9.16
2017-06-27T03:54:38.288Z,9.18
2017-06-27T03:55:38.342Z,9.22
2017-06-27T03:56:38.280Z,9.28
2017-06-27T03:57:38.288Z,9.28
2017-06-27T03:58:38.370Z,9.27
2017-06-27T03:59:38.286Z,9.28
2017-06-27T04:00:38.382Z,9.30
2017-06-27T04:01:38.294Z,9.31
2017-06-27T04:02:38.315Z,9.32
2017-06-27T04:03:38.374Z,9.32
2017-06-27T04:04:38.372Z,9.32
2017-06-27T04:05:38.290Z,9.34
2017-06-27T04:06:38.295Z,9.38
2017-06-27T04:07:38.382Z,9.39
2017-06-27T04:08:38.381Z,9.42
2017-06-27T04:09:38.381Z,9.46
2017-06-27T04:10:38.380Z,9.49
2017-06-27T04:11:38.381Z,9.51
2017-06-27T04:12:38.287Z,9.54
2017-06-27T04:13:38.381Z,9.58
2017-06-27T04:14:38.355Z,9.61
2017-06-27T04:15:38.293Z,9.66
2017-06-27T04:16:38.297Z,9.71
2017-06-27T04:17:38.380Z,9.73
2017-06-27T04:18:38.362Z,9.73
2017-06-27T04:19:38.376Z,9.76
2017-06-27T04:20:38.332Z,9.78
2017-06-27T04:21:38.301Z,9.80
2017-06-27T04:22:38.388Z,9.83
2017-06-27T04:23:38.302Z,9.87
2017-06-27T04:24:38.307Z,9.90
2017-06-27T04:25:38.392Z,9.94
2017-06-27T04:26:38.391Z,9.98
2017-06-27T04:27:38.392Z,10.04
2017-06-27T04:28:38.437Z,10.09
2017-06-27T04:29:38.340Z,10.14
2017-06-27T04:30:38.389Z,10.17
2017-06-27T04:31:38.384Z,10.23
2017-06-27T04:32:38.383Z,10.25
2017-06-27T04:33:38.384Z,10.31
2017-06-27T04:34:38.310Z,10.36
2017-06-27T04:35:38.467Z,10.41
2017-06-27T04:36:38.312Z,10.46
2017-06-27T04:37:38.307Z,10.50
2017-06-27T04:38:38.299Z,10.56
2017-06-27T04:39:38.425Z,10.58
2017-06-27T04:40:38.371Z,10.63
2017-06-27T04:41:38.401Z,10.68
2017-06-27T04:42:38.305Z,10.72
2017-06-27T04:43:38.398Z,10.80
2017-06-27T04:44:38.309Z,10.87
2017-06-27T04:45:38.400Z,10.95
2017-06-27T04:46:38.392Z,11.02
2017-06-27T04:47:38.307Z,11.06
2017-06-27T04:48:38.314Z,11.11
2017-06-27T04:50:38.315Z,11.24
2017-06-27T04:51:38.385Z,11.28
2017-06-27T04:52:38.413Z,11.32
2017-06-27T04:53:38.319Z,11.32
2017-06-27T04:54:38.409Z,11.38
2017-06-27T04:55:38.407Z,11.43
2017-06-27T04:56:38.317Z,11.47
2017-06-27T04:57:38.319Z,11.50
2017-06-27T04:58:38.405Z,11.53
2017-06-27T04:59:38.313Z,11.56
2017-06-27T05:00:38.320Z,11.62
2017-06-27T05:01:38.317Z,11.64
2017-06-27T05:02:38.320Z,11.68
2017-06-27T05:03:38.407Z,11.71
2017-06-27T05:04:38.414Z,11.73
2017-06-27T05:05:38.382Z,11.80
2017-06-27T05:06:38.415Z,11.86
2017-06-27T05:07:38.409Z,11.94
2017-06-27T05:08:38.327Z,12.01
2017-06-27T05:09:38.331Z,12.06
2017-06-27T05:10:38.403Z,12.16
2017-06-27T05:11:38.356Z,12.25
2017-06-27T05:12:38.424Z,12.31
2017-06-27T05:13:38.402Z,12.39
2017-06-27T05:14:38.415Z,12.43
2017-06-27T05:15:38.320Z,12.51
2017-06-27T05:16:38.465Z,12.58
2017-06-27T05:17:38.324Z,12.62
2017-06-27T05:18:38.418Z,12.68
2017-06-27T05:19:38.332Z,12.69
2017-06-27T05:20:38.327Z,12.72
2017-06-27T05:21:38.361Z,12.79
2017-06-27T05:22:38.422Z,12.83
2017-06-27T05:23:38.431Z,12.84
2017-06-27T05:24:38.417Z,12.86
2017-06-27T05:25:38.425Z,12.91
2017-06-27T05:26:38.424Z,12.98
2017-06-27T05:27:38.421Z,13.05
2017-06-27T05:28:38.425Z,13.10
2017-06-27T05:29:38.423Z,13.14
2017-06-27T05:30:38.426Z,13.13
2017-06-27T05:31:38.334Z,13.16
2017-06-27T05:32:38.398Z,13.14
2017-06-27T05:33:38.394Z,13.17
2017-06-27T05:34:38.427Z,13.20
2017-06-27T05:35:38.343Z,13.24
2017-06-27T05:36:38.423Z,13.25
2017-06-27T05:37:38.369Z,13.23
2017-06-27T05:38:38.421Z,13.29
2017-06-27T05:39:38.339Z,13.31
2017-06-27T05:40:38.344Z,13.35
2017-06-27T05:41:38.430Z,13.38
2017-06-27T05:42:38.343Z,13.43
2017-06-27T05:43:38.340Z,13.49
2017-06-27T05:44:38.436Z,13.54
2017-06-27T05:45:38.424Z,13.53
2017-06-27T05:46:38.431Z,13.53
2017-06-27T05:47:38.423Z,13.57
2017-06-27T05:48:38.436Z,13.54
2017-06-27T05:49:38.348Z,13.53
2017-06-27T05:50:38.346Z,13.51
2017-06-27T05:51:38.429Z,13.50
2017-06-27T05:52:38.436Z,13.56
2017-06-27T05:53:38.347Z,13.59
2017-06-27T05:54:38.355Z,13.65
2017-06-27T05:55:38.377Z,13.64
2017-06-27T05:56:38.435Z,13.69
2017-06-27T05:57:38.440Z,13.72
2017-06-27T05:58:38.437Z,13.70
2017-06-27T05:59:38.355Z,13.65
2017-06-27T06:00:38.360Z,13.69
2017-06-27T06:01:38.442Z,13.66
2017-06-27T06:02:38.443Z,13.65
2017-06-27T06:03:38.447Z,13.70
2017-06-27T06:04:38.353Z,13.70
2017-06-27T06:05:38.458Z,13.72
2017-06-27T06:06:38.492Z,13.76
2017-06-27T06:07:38.445Z,13.76
2017-06-27T06:08:38.363Z,13.80
2017-06-27T06:09:38.421Z,13.88
2017-06-27T06:10:38.358Z,13.91
2017-06-27T06:11:38.449Z,13.98
2017-06-27T06:12:38.356Z,13.99
2017-06-27T06:13:38.406Z,14.00
2017-06-27T06:14:38.484Z,14.02
2017-06-27T06:15:38.449Z,13.98
2017-06-27T06:16:38.455Z,13.95
2017-06-27T06:17:38.369Z,13.98
2017-06-27T06:18:38.450Z,14.03
2017-06-27T06:19:38.441Z,14.07
2017-06-27T06:20:38.502Z,14.09
2017-06-27T06:21:38.448Z,14.09
2017-06-27T06:22:38.455Z,14.07
2017-06-27T06:23:38.453Z,14.09
2017-06-27T06:24:38.447Z,14.17
2017-06-27T06:25:38.453Z,14.21
2017-06-27T06:26:38.364Z,14.27
2017-06-27T06:27:38.456Z,14.35
2017-06-27T06:28:38.477Z,14.43
2017-06-27T06:29:38.456Z,14.46
2017-06-27T06:30:38.445Z,14.53
2017-06-27T06:31:38.404Z,14.44
2017-06-27T06:32:38.457Z,14.50
2017-06-27T06:33:38.433Z,14.47
2017-06-27T06:34:38.460Z,14.49
2017-06-27T06:35:38.449Z,14.50
2017-06-27T06:36:38.463Z,14.54
2017-06-27T06:37:38.462Z,14.60
2017-06-27T06:38:38.464Z,14.61
2017-06-27T06:39:38.459Z,14.65
2017-06-27T06:40:38.373Z,14.65
2017-06-27T06:41:38.367Z,14.66
2017-06-27T06:42:38.455Z,14.69
2017-06-27T06:43:38.441Z,14.76
2017-06-27T06:44:38.452Z,14.83
2017-06-27T06:45:38.463Z,14.89
2017-06-27T06:46:38.381Z,15.00
2017-06-27T06:47:38.388Z,15.07
2017-06-27T06:48:38.472Z,15.15
2017-06-27T06:49:38.470Z,15.11
2017-06-27T06:50:38.381Z,15.03
2017-06-27T06:51:38.379Z,15.07
2017-06-27T06:52:38.471Z,15.15
2017-06-27T06:53:38.445Z,15.21
2017-06-27T06:54:38.381Z,15.28
2017-06-27T06:55:38.388Z,15.32
2017-06-27T06:56:38.391Z,15.39
2017-06-27T06:57:38.551Z,15.50
2017-06-27T06:58:38.492Z,15.59
2017-06-27T06:59:38.397Z,15.65
2017-06-27T07:00:38.381Z,15.66
2017-06-27T07:01:38.479Z,15.59
2017-06-27T07:02:38.381Z,15.66
2017-06-27T07:03:38.392Z,15.70
2017-06-27T07:04:38.454Z,15.80
2017-06-27T07:05:38.478Z,15.88
2017-06-27T07:06:38.500Z,15.90
2017-06-27T07:07:38.483Z,16.02
2017-06-27T07:08:38.484Z,16.05
2017-06-27T07:09:38.453Z,16.10
2017-06-27T07:10:38.480Z,16.21
2017-06-27T07:11:38.394Z,16.27
2017-06-27T07:12:38.477Z,16.22
2017-06-27T07:13:38.474Z,16.22
2017-06-27T07:14:38.399Z,16.25
2017-06-27T07:15:38.482Z,16.35
2017-06-27T07:16:38.401Z,16.44
2017-06-27T07:17:38.485Z,16.57
2017-06-27T07:18:38.476Z,16.52
2017-06-27T07:19:38.395Z,16.59
2017-06-27T07:20:38.395Z,16.66
2017-06-27T07:21:38.402Z,16.62
2017-06-27T07:22:38.404Z,16.70
2017-06-27T07:23:38.488Z,16.83
2017-06-27T07:24:38.460Z,16.95
2017-06-27T07:25:38.490Z,17.08
2017-06-27T07:26:38.485Z,17.20
2017-06-27T07:27:38.429Z,17.26
2017-06-27T07:28:38.399Z,17.29
2017-06-27T07:29:38.490Z,17.29
2017-06-27T07:30:38.493Z,16.95
2017-06-27T07:31:38.496Z,16.97
2017-06-27T07:32:38.492Z,17.08
2017-06-27T07:33:38.410Z,17.05
2017-06-27T07:34:38.485Z,17.09
2017-06-27T07:35:38.407Z,17.26
2017-06-27T07:36:38.469Z,17.40
2017-06-27T07:37:38.517Z,17.51
2017-06-27T07:38:38.485Z,17.61
2017-06-27T07:39:38.403Z,17.75
2017-06-27T07:40:38.491Z,17.84
2017-06-27T07:41:38.482Z,17.89
2017-06-27T07:42:38.441Z,17.98
2017-06-27T07:43:38.501Z,17.87
2017-06-27T07:44:38.410Z,17.94
2017-06-27T07:45:38.493Z,17.99
2017-06-27T07:46:38.416Z,17.91
2017-06-27T07:47:38.417Z,17.88
2017-06-27T07:48:38.487Z,17.84
2017-06-27T07:49:38.503Z,17.80
2017-06-27T07:50:38.502Z,17.95
2017-06-27T07:51:38.417Z,17.98
2017-06-27T07:52:38.420Z,18.10
2017-06-27T07:53:38.500Z,18.18
2017-06-27T07:54:38.491Z,18.17
2017-06-27T07:55:38.496Z,17.95
2017-06-27T07:56:38.421Z,17.99
2017-06-27T07:57:38.507Z,18.00
2017-06-27T07:58:38.507Z,18.12
2017-06-27T07:59:38.507Z,18.23
2017-06-27T08:00:38.511Z,18.28
2017-06-27T08:01:38.417Z,18.25
2017-06-27T08:02:38.503Z,18.20
2017-06-27T08:03:38.426Z,18.29
2017-06-27T08:04:38.505Z,18.32
2017-06-27T08:05:38.421Z,18.36
2017-06-27T08:06:38.504Z,18.31
2017-06-27T08:07:38.487Z,18.32
2017-06-27T08:08:38.426Z,18.32
2017-06-27T08:09:38.514Z,18.34
2017-06-27T08:10:38.502Z,18.28
2017-06-27T08:11:38.505Z,18.36
2017-06-27T08:12:38.431Z,18.43
2017-06-27T08:13:38.514Z,18.51
2017-06-27T08:14:38.525Z,18.48
2017-06-27T08:15:38.514Z,18.50
2017-06-27T08:16:38.425Z,18.48
2017-06-27T08:17:38.491Z,18.47
2017-06-27T08:18:38.523Z,18.58
2017-06-27T08:19:38.439Z,18.51
2017-06-27T08:20:38.514Z,18.48
2017-06-27T08:21:38.520Z,18.46
2017-06-27T08:22:38.492Z,18.52
2017-06-27T08:23:38.522Z,18.59
2017-06-27T08:24:38.511Z,18.65
2017-06-27T08:25:38.521Z,18.65
2017-06-27T08:26:38.522Z,18.65
2017-06-27T08:27:38.515Z,18.76
2017-06-27T08:28:38.526Z,18.87
2017-06-27T08:29:38.509Z,18.79
2017-06-27T08:30:38.529Z,18.94
2017-06-27T08:31:38.519Z,19.03
2017-06-27T08:32:38.526Z,19.08
2017-06-27T08:33:38.525Z,19.19
2017-06-27T08:34:38.528Z,19.15
2017-06-27T08:35:38.496Z,19.02
2017-06-27T08:36:38.530Z,18.97
2017-06-27T08:37:38.531Z,19.08
2017-06-27T08:38:38.531Z,19.17
2017-06-27T08:39:38.446Z,19.12
2017-06-27T08:40:38.469Z,19.24
2017-06-27T08:41:38.524Z,19.20
2017-06-27T08:42:38.527Z,19.03
2017-06-27T08:43:38.452Z,18.97
2017-06-27T08:44:38.440Z,18.83
2017-06-27T08:45:38.534Z,18.87
2017-06-27T08:46:38.526Z,18.98
2017-06-27T08:47:38.505Z,19.09
2017-06-27T08:48:38.453Z,19.08
2017-06-27T08:49:38.452Z,19.10
2017-06-27T08:50:38.523Z,19.19
2017-06-27T08:51:38.532Z,19.31
2017-06-27T08:52:38.511Z,19.43
2017-06-27T08:53:38.457Z,19.44
2017-06-27T08:54:38.541Z,19.53
2017-06-27T08:55:38.453Z,19.43
2017-06-27T08:56:38.543Z,19.54
2017-06-27T08:57:38.542Z,19.60
2017-06-27T08:58:38.450Z,19.60
2017-06-27T08:59:38.533Z,19.49
2017-06-27T09:00:38.540Z,19.38
2017-06-27T09:01:38.525Z,19.39
2017-06-27T09:02:38.535Z,19.46
2017-06-27T09:03:38.542Z,19.39
2017-06-27T09:04:38.457Z,19.27
2017-06-27T09:05:38.548Z,19.29
2017-06-27T09:06:38.517Z,19.32
2017-06-27T09:07:38.542Z,19.39
2017-06-27T09:08:38.590Z,19.44
2017-06-27T09:09:38.455Z,19.61
2017-06-27T09:10:38.547Z,19.60
2017-06-27T09:11:38.547Z,19.65
2017-06-27T09:12:38.553Z,19.70
2017-06-27T09:13:38.458Z,19.57
2017-06-27T09:14:38.521Z,19.65
2017-06-27T09:15:38.541Z,19.81
2017-06-27T09:16:38.581Z,19.90
2017-06-27T09:17:38.544Z,20.02
2017-06-27T09:18:38.490Z,20.13
2017-06-27T09:19:38.549Z,20.25
2017-06-27T09:20:38.553Z,20.34
2017-06-27T09:21:38.469Z,20.47
2017-06-27T09:22:38.492Z,20.70
2017-06-27T09:23:38.465Z,20.84
2017-06-27T09:24:38.552Z,20.86
2017-06-27T09:25:38.586Z,20.93
2017-06-27T09:26:38.556Z,20.95
2017-06-27T09:27:38.558Z,21.04
2017-06-27T09:28:38.563Z,20.94
2017-06-27T09:29:38.562Z,20.72
2017-06-27T09:30:38.475Z,20.66
2017-06-27T09:31:38.560Z,20.38
2017-06-27T09:32:38.475Z,20.45
2017-06-27T09:33:38.558Z,20.54
2017-06-27T09:34:38.554Z,20.50
2017-06-27T09:35:38.561Z,20.66
2017-06-27T09:36:38.566Z,20.50
2017-06-27T09:37:38.558Z,20.25
2017-06-27T09:38:38.548Z,20.07
2017-06-27T09:39:38.553Z,20.12
2017-06-27T09:40:38.471Z,20.17
2017-06-27T09:41:38.482Z,20.31
2017-06-27T09:42:38.537Z,20.35
2017-06-27T09:43:38.572Z,20.47
2017-06-27T09:44:38.477Z,20.54
2017-06-27T09:45:38.564Z,20.73
2017-06-27T09:46:38.475Z,20.77
2017-06-27T09:47:38.481Z,20.82
2017-06-27T09:48:38.539Z,20.82
2017-06-27T09:49:38.477Z,20.66
2017-06-27T09:50:38.544Z,20.52
2017-06-27T09:51:38.543Z,20.58
2017-06-27T09:52:38.573Z,20.54
2017-06-27T09:53:38.569Z,20.47
2017-06-27T09:54:38.559Z,20.58
2017-06-27T09:55:38.572Z,20.54
2017-06-27T09:56:38.485Z,20.65
2017-06-27T09:57:38.573Z,20.72
2017-06-27T09:58:38.569Z,20.60
2017-06-27T09:59:38.480Z,20.49
2017-06-27T10:00:38.575Z,20.50
2017-06-27T10:01:38.578Z,20.58
2017-06-27T10:02:38.490Z,20.68
2017-06-27T10:03:38.577Z,20.80
2017-06-27T10:04:38.586Z,20.86
2017-06-27T10:05:38.581Z,20.98
2017-06-27T10:06:38.572Z,20.97
2017-06-27T10:07:38.583Z,20.97
2017-06-27T10:08:38.549Z,20.99
2017-06-27T10:09:38.552Z,20.95
2017-06-27T10:10:38.585Z,20.83
2017-06-27T10:11:38.552Z,20.76
2017-06-27T10:12:38.554Z,20.58
2017-06-27T10:13:38.566Z,20.61
2017-06-27T10:14:38.573Z,20.68
2017-06-27T10:15:38.584Z,20.61
2017-06-27T10:16:38.577Z,20.61
2017-06-27T10:17:38.586Z,20.76
2017-06-27T10:18:38.586Z,20.80
2017-06-27T10:19:38.579Z,20.86
2017-06-27T10:20:38.578Z,20.93
2017-06-27T10:21:38.587Z,20.82
2017-06-27T10:22:38.579Z,20.83
2017-06-27T10:23:38.496Z,20.99
2017-06-27T10:24:38.570Z,21.10
2017-06-27T10:25:38.497Z,21.28
2017-06-27T10:26:38.591Z,21.36
2017-06-27T10:27:38.587Z,21.50
2017-06-27T10:28:38.503Z,21.46
2017-06-27T10:29:38.575Z,21.42
2017-06-27T10:30:38.594Z,21.31
2017-06-27T10:31:38.595Z,21.39
2017-06-27T10:32:38.504Z,21.35
2017-06-27T10:33:38.583Z,21.38
2017-06-27T10:34:38.510Z,21.39
2017-06-27T10:35:38.566Z,21.49
2017-06-27T10:36:38.507Z,21.58
2017-06-27T10:37:38.599Z,21.62
2017-06-27T10:38:38.598Z,21.69
2017-06-27T10:39:38.592Z,21.89
2017-06-27T10:40:38.595Z,21.96
2017-06-27T10:41:38.584Z,22.08
2017-06-27T10:42:38.511Z,22.10
2017-06-27T10:43:38.509Z,22.19
2017-06-27T10:44:38.597Z,22.16
2017-06-27T10:45:38.514Z,22.27
2017-06-27T10:46:38.503Z,22.17
2017-06-27T10:47:38.589Z,22.12
2017-06-27T10:48:38.601Z,22.04
2017-06-27T10:49:38.595Z,22.12
2017-06-27T10:50:38.509Z,22.21
2017-06-27T10:51:38.518Z,22.12
2017-06-27T10:52:38.601Z,22.31
2017-06-27T10:53:38.603Z,22.48
2017-06-27T10:54:38.604Z,22.63
2017-06-27T10:55:38.600Z,22.60
2017-06-27T10:56:38.514Z,22.70
2017-06-27T10:57:38.519Z,22.87
2017-06-27T10:58:38.598Z,23.00
2017-06-27T10:59:38.516Z,22.93
2017-06-27T11:00:38.523Z,22.91
2017-06-27T11:01:38.608Z,23.09
2017-06-27T11:02:38.530Z,23.04
2017-06-27T11:03:38.518Z,23.02
2017-06-27T11:04:38.610Z,22.93
2017-06-27T11:05:38.611Z,23.00
2017-06-27T11:06:38.549Z,22.93
2017-06-27T11:07:38.601Z,23.05
2017-06-27T11:08:38.516Z,23.22
2017-06-27T11:09:38.608Z,23.26
2017-06-27T11:10:38.613Z,23.09
2017-06-27T11:11:38.615Z,22.98
2017-06-27T11:12:38.617Z,22.94
2017-06-27T11:13:38.520Z,22.70
2017-06-27T11:14:38.528Z,22.65
2017-06-27T11:15:38.524Z,22.67
2017-06-27T11:16:38.609Z,22.59
2017-06-27T11:17:38.613Z,22.35
2017-06-27T11:18:38.618Z,22.30
2017-06-27T11:19:38.608Z,22.42
2017-06-27T11:20:38.562Z,22.46
2017-06-27T11:21:38.622Z,22.48
2017-06-27T11:22:38.537Z,22.45
2017-06-27T11:23:38.591Z,22.46
2017-06-27T11:24:38.612Z,22.46
2017-06-27T11:25:38.529Z,22.56
2017-06-27T11:26:38.614Z,22.56
2017-06-27T11:27:38.533Z,22.64
2017-06-27T11:28:38.628Z,22.50
2017-06-27T11:29:38.534Z,22.65
2017-06-27T11:30:38.561Z,22.86
2017-06-27T11:31:38.615Z,23.00
2017-06-27T11:32:38.630Z,23.04
2017-06-27T11:33:38.622Z,23.02
2017-06-27T11:34:38.623Z,23.11
2017-06-27T11:35:38.541Z,23.11
2017-06-27T11:36:38.541Z,22.93
2017-06-27T11:37:38.621Z,23.05
2017-06-27T11:38:38.616Z,23.24
2017-06-27T11:39:38.613Z,23.38
2017-06-27T11:40:38.619Z,23.45
2017-06-27T11:41:38.626Z,23.64
2017-06-27T11:42:38.572Z,23.78
2017-06-27T11:43:38.553Z,23.96
2017-06-27T11:44:38.549Z,23.80
2017-06-27T11:45:38.551Z,23.83
2017-06-27T11:46:38.633Z,23.86
2017-06-27T11:47:38.603Z,23.68
2017-06-27T11:48:38.549Z,23.78
2017-06-27T11:49:38.644Z,23.63
2017-06-27T11:50:38.638Z,23.47
2017-06-27T11:51:38.622Z,23.57
2017-06-27T11:52:38.637Z,23.78
2017-06-27T11:53:38.638Z,24.00
2017-06-27T11:54:38.628Z,24.20
2017-06-27T11:55:38.557Z,24.53
2017-06-27T11:56:38.663Z,24.74
2017-06-27T11:57:38.640Z,24.67
2017-06-27T11:58:38.644Z,24.57
2017-06-27T11:59:38.556Z,24.56
2017-06-27T12:00:38.643Z,24.26
2017-06-27T12:01:38.635Z,24.15
2017-06-27T12:02:38.648Z,24.26
2017-06-27T12:03:38.629Z,24.49
2017-06-27T12:04:38.635Z,24.67
2017-06-27T12:05:38.646Z,24.71
2017-06-27T12:06:38.647Z,24.57
2017-06-27T12:07:38.555Z,24.51
2017-06-27T12:08:38.650Z,24.44
2017-06-27T12:09:38.632Z,24.44
2017-06-27T12:10:38.679Z,24.48
2017-06-27T12:11:38.649Z,24.49
2017-06-27T12:12:38.639Z,24.53
2017-06-27T12:13:38.650Z,24.53
2017-06-27T12:14:38.649Z,24.44
2017-06-27T12:15:38.654Z,24.25
2017-06-27T12:16:38.647Z,24.09
2017-06-27T12:17:38.647Z,24.04
2017-06-27T12:18:38.626Z,23.93
2017-06-27T12:19:38.701Z,23.85
2017-06-27T12:20:38.625Z,23.83
2017-06-27T12:21:38.642Z,23.83
2017-06-27T12:22:38.643Z,23.87
2017-06-27T12:23:38.630Z,23.93
2017-06-27T12:24:38.570Z,23.97
2017-06-27T12:25:38.561Z,24.05
2017-06-27T12:26:38.565Z,24.01
2017-06-27T12:27:38.657Z,24.05
2017-06-27T12:28:38.660Z,24.01
2017-06-27T12:29:38.658Z,23.87
2017-06-27T12:30:38.658Z,23.83
2017-06-27T12:31:38.564Z,23.74
2017-06-27T12:32:38.658Z,23.72
2017-06-27T12:33:38.661Z,23.76
2017-06-27T12:34:38.651Z,23.75
2017-06-27T12:35:38.662Z,23.87
2017-06-27T12:36:38.646Z,24.09
2017-06-27T12:37:38.658Z,24.23
2017-06-27T12:38:38.696Z,24.42
2017-06-27T12:39:38.649Z,24.53
2017-06-27T12:40:38.662Z,24.38
2017-06-27T12:41:38.626Z,24.56
2017-06-27T12:42:38.655Z,24.63
2017-06-27T12:43:38.651Z,24.53
2017-06-27T12:44:38.653Z,24.67
2017-06-27T12:45:38.578Z,24.63
2017-06-27T12:46:38.686Z,24.38
2017-06-27T12:47:38.666Z,24.38
2017-06-27T12:48:38.578Z,24.31
2017-06-27T12:49:38.584Z,24.12
2017-06-27T12:50:38.670Z,23.94
2017-06-27T12:51:38.583Z,23.85
2017-06-27T12:52:38.670Z,23.89
2017-06-27T12:53:38.675Z,23.86
2017-06-27T12:54:38.663Z,23.72
2017-06-27T12:55:38.671Z,23.78
2017-06-27T12:56:38.591Z,23.71
2017-06-27T12:57:38.670Z,23.68
2017-06-27T12:58:38.586Z,23.75
2017-06-27T12:59:38.582Z,23.86
2017-06-27T13:00:38.629Z,23.90
2017-06-27T13:01:38.678Z,24.01
2017-06-27T13:02:38.675Z,24.18